Aérodrome :
LOGIN :

S'inscrire | Disclaimer

   EN    FR    IT 

 










Légende :    VFR   VFR Marginal   IFR   IFR Intensif   IFR Très Intensif
Visi : 
Plafond : 
>= 8 km
>= 3000ft
5 à 8 km
1000 à 3000 ft
1500m à 5 km
500 à 1000 ft
800 à 1500m
200 à 500 ft
< 800m
< 200 ft
Symboles :   Orages  Brouillard  Fortes neiges  Fortes précipitations  Vent > 20 kt
SIGMETs :   Divers  Orages  Givrage  Turbulence  Onde Orograph.  Cendres Volcan.






- Altitude de l'aérodrome : 614 ft
- Code IATA : CRL


EBCI - Charleroi

DERNIER METAR :
  • 180250Z 23016KT 9999 BKN016 BKN033 05/03 Q1022 NOSIG

METARs EXPIRÉS :
  • 180220Z 23013KT 9999 BKN016 BKN033 05/03 Q1022 NOSIG
  • 180150Z 23016KT 9999 BKN016 BKN033 05/03 Q1021 NOSIG
  • 180120Z 23016KT 9999 BKN016 BKN033 05/03 Q1021 NOSIG
  • 180050Z 23016KT 9999 BKN016 BKN033 06/03 Q1021 NOSIG
  • 180020Z 23016KT 9999 -SHRA BKN016 BKN033 06/03 Q1020 NOSIG

TAF TAF EBCI
Valide du 18 à 00h jusqu'au 19 à 06h UTC


172300Z 1800/1906 23014KT 9999 FEW018TCU SCT030
PROB40
TEMPO 1800/1803 24020G33KT 3500 SHRA SHRAGS BKN014CB
BECMG 1807/1809 23015G25KT
PROB30
TEMPO 1807/1817 4500 SHRA BKN014 SCT020TCU
TEMPO 1817/1903 4000 SHRA RA SCT010 BKN014TCU
PROB40
TEMPO 1822/1901 24023G40KT 2500 SHRAGS SCT008 BKN013CB
BECMG 1901/1904 27013KT



MET'MAP, la Météo Aéronautique d'un coup d'oeil ! - Copyright ORBIFLY Décembre 2007 - Disclaimer

ORBIFLY MET'MAP TEAM :

Programmation & Développement : Alexandra Zaïnal
Sur une idée originale de : Baudouin d'Aumeries
Assistance à la programmation : Marc-Olivier Méhu
Soutien technique & logistique : Manuel Goepfert

Contact : metmap@orbifly.com




SOURCES & CREDITS :

   NOAA